Sunny Acres, Indiana
Current Conditions -  °F | °C
As of 8:54 PM on Wednesday 22 Oct 2014 (Local Time) from KFWA Reporting Station
Clear Clear  
Wind Chill: 36°   Ceiling: Unl
Heat Index: 40°   Visibility: 10mi
Dew Point: 37°   Wind: 6mph
Humidity: 89%   Direction: 110°ESE
Pressure: 30.3"   Gusts: NA
Location:  40.8317°N, 84.9398°W
Report Text: KFWA 230054Z 11005KT 10SM CLR 04/03 A3030 RMK AO2 SLP265 T00440028
Loading
Personal Weather Stations






























Interactive Weather Map
Tropical Storm Tracking
New forecast layout! Learn more

10-Day Weather Forecast

Advertisements
Track Severe Weather on mobile